This is the latest recevied weather packets stored in our database for station/object LA9TLA-1. If no packets are shown the sender has not sent any weather packets the latest 10 day(s).
| Time | Temp. | Humidity | Pressure | Rain* | Wind** | Luminosity | Snow |
|---|---|---|---|---|---|---|---|
| 1788156301 | 14.44° C | 99% | 995.9 hPa | 0 mm | - | - | - |
| 1788154501 | 13.89° C | 99% | 996 hPa | 0 mm | - | - | - |
| 1788152704 | 13.89° C | 99% | 996 hPa | 0 mm | - | - | - |
| 1788150904 | 13.89° C | 99% | 996 hPa | 0 mm | - | - | - |
| 1788149101 | 13.89° C | 99% | 996 hPa | 0 mm | - | - | - |
| 1788143703 | 13.89° C | 99% | 996.1 hPa | 0 mm | - | - | - |
| 1788114903 | 15° C | 99% | 995.8 hPa | 0 mm | - | - | - |
| 1788105903 | 15.56° C | 99% | 994.8 hPa | 0 mm | - | - | - |
| 1788104102 | 15.56° C | 99% | 994.6 hPa | 0 mm | - | - | - |
| 1788102302 | 15.56° C | 99% | 994.3 hPa | 0 mm | - | - | - |
| 1788100504 | 15.56° C | 99% | 994.3 hPa | 0 mm | - | - | - |
| 1788096901 | 15.56° C | 99% | 994.1 hPa | 0 mm | - | - | - |
| 1788095102 | 15.56° C | 99% | 993.8 hPa | 0 mm | - | - | - |
| 1788093303 | 16.11° C | 99% | 993.5 hPa | 0 mm | - | - | - |
| 1788091502 | 16.11° C | 99% | 993.4 hPa | 0 mm | - | - | - |
| 1788089701 | 16.11° C | 99% | 993.3 hPa | 0 mm | - | - | - |
| 1788087902 | 16.11° C | 99% | 992.9 hPa | 0 mm | - | - | - |
| 1788086103 | 15.56° C | 99% | 992.8 hPa | 0 mm | - | - | - |
| 1788082502 | 15° C | 99% | 992.7 hPa | 0 mm | - | - | - |
| 1788080701 | 15° C | 99% | 992.5 hPa | 0 mm | - | - | - |
| 1788078901 | 15° C | 99% | 992.4 hPa | 0 mm | - | - | - |
| 1788075303 | 15° C | 99% | 992 hPa | 0 mm | - | - | - |
| 1788073502 | 15° C | 99% | 991.9 hPa | 0 mm | - | - | - |
| 1788071704 | 15° C | 99% | 991.6 hPa | 0 mm | - | - | - |
| 1788069902 | 15° C | 99% | 991.4 hPa | 0 mm | - | - | - |
* Rain latest hour (hover to see other rain measurements)
** Current wind speed in m/s (hover to see current wind gust speed)